sensor_id;sensor_type;location;lat;lon;timestamp;pressure;altitude;pressure_sealevel;temperature;humidity
60019;BME280;45870;42.528;26.740;2024-01-27T00:02:17;100164.75;;;10.52;41.05
60019;BME280;45870;42.528;26.740;2024-01-27T00:04:42;100175.78;;;9.63;42.07
60019;BME280;45870;42.528;26.740;2024-01-27T00:07:08;100174.47;;;10.35;40.94
60019;BME280;45870;42.528;26.740;2024-01-27T00:09:33;100180.88;;;10.40;40.19
60019;BME280;45870;42.528;26.740;2024-01-27T00:11:59;100187.34;;;10.58;40.43
60019;BME280;45870;42.528;26.740;2024-01-27T00:14:24;100178.22;;;10.59;41.13
60019;BME280;45870;42.528;26.740;2024-01-27T00:16:50;100167.88;;;10.74;40.01
60019;BME280;45870;42.528;26.740;2024-01-27T00:19:15;100183.16;;;10.62;40.69
60019;BME280;45870;42.528;26.740;2024-01-27T00:21:41;100179.06;;;10.52;40.80
60019;BME280;45870;42.528;26.740;2024-01-27T00:24:06;100181.97;;;10.33;40.79
60019;BME280;45870;42.528;26.740;2024-01-27T00:26:31;100189.78;;;9.85;42.02
60019;BME280;45870;42.528;26.740;2024-01-27T00:28:57;100186.75;;;9.24;44.40
60019;BME280;45870;42.528;26.740;2024-01-27T00:31:22;100192.16;;;9.62;43.33
60019;BME280;45870;42.528;26.740;2024-01-27T00:33:48;100188.78;;;10.35;41.69
60019;BME280;45870;42.528;26.740;2024-01-27T00:36:13;100185.97;;;10.91;40.15
60019;BME280;45870;42.528;26.740;2024-01-27T00:38:38;100191.78;;;10.27;41.23
60019;BME280;45870;42.528;26.740;2024-01-27T00:41:04;100198.19;;;9.95;41.48
60019;BME280;45870;42.528;26.740;2024-01-27T00:43:30;100200.06;;;9.63;42.73
60019;BME280;45870;42.528;26.740;2024-01-27T00:45:55;100187.09;;;9.40;43.10
60019;BME280;45870;42.528;26.740;2024-01-27T00:48:21;100182.88;;;9.07;43.75
60019;BME280;45870;42.528;26.740;2024-01-27T00:50:47;100179.16;;;9.01;44.31
60019;BME280;45870;42.528;26.740;2024-01-27T00:53:13;100174.84;;;8.87;44.21
60019;BME280;45870;42.528;26.740;2024-01-27T00:55:38;100176.72;;;10.38;40.97
60019;BME280;45870;42.528;26.740;2024-01-27T00:58:03;100167.69;;;10.50;40.54
60019;BME280;45870;42.528;26.740;2024-01-27T01:00:29;100160.53;;;8.99;43.53
60019;BME280;45870;42.528;26.740;2024-01-27T01:02:54;100156.28;;;9.99;41.72
60019;BME280;45870;42.528;26.740;2024-01-27T01:05:20;100136.94;;;10.33;40.57
60019;BME280;45870;42.528;26.740;2024-01-27T01:07:45;100144.81;;;10.53;40.64
60019;BME280;45870;42.528;26.740;2024-01-27T01:10:10;100142.38;;;10.51;39.85
60019;BME280;45870;42.528;26.740;2024-01-27T01:12:36;100138.69;;;10.21;40.51
60019;BME280;45870;42.528;26.740;2024-01-27T01:15:01;100136.44;;;9.87;42.13
60019;BME280;45870;42.528;26.740;2024-01-27T01:17:27;100133.66;;;10.68;40.50
60019;BME280;45870;42.528;26.740;2024-01-27T01:19:53;100127.75;;;10.77;39.98
60019;BME280;45870;42.528;26.740;2024-01-27T01:22:18;100132.06;;;10.42;39.83
60019;BME280;45870;42.528;26.740;2024-01-27T01:24:43;100133.72;;;10.18;39.95
60019;BME280;45870;42.528;26.740;2024-01-27T01:27:09;100134.97;;;9.60;41.62
60019;BME280;45870;42.528;26.740;2024-01-27T01:29:34;100135.75;;;9.67;41.42
60019;BME280;45870;42.528;26.740;2024-01-27T01:32:00;100136.00;;;9.59;40.91
60019;BME280;45870;42.528;26.740;2024-01-27T01:34:28;100132.28;;;7.72;46.44
60019;BME280;45870;42.528;26.740;2024-01-27T01:36:53;100120.53;;;7.86;46.88
60019;BME280;45870;42.528;26.740;2024-01-27T01:39:19;100121.38;;;8.20;46.17
60019;BME280;45870;42.528;26.740;2024-01-27T01:41:44;100119.28;;;8.15;47.28
60019;BME280;45870;42.528;26.740;2024-01-27T01:44:10;100118.03;;;8.37;46.39
60019;BME280;45870;42.528;26.740;2024-01-27T01:46:35;100111.66;;;9.40;42.91
60019;BME280;45870;42.528;26.740;2024-01-27T01:49:01;100102.22;;;9.25;43.08
60019;BME280;45870;42.528;26.740;2024-01-27T01:51:26;100108.22;;;8.69;44.49
60019;BME280;45870;42.528;26.740;2024-01-27T01:53:54;100101.06;;;8.43;45.17
60019;BME280;45870;42.528;26.740;2024-01-27T01:56:20;100095.72;;;8.04;46.01
60019;BME280;45870;42.528;26.740;2024-01-27T01:58:45;100102.72;;;8.44;45.12
60019;BME280;45870;42.528;26.740;2024-01-27T02:01:13;100091.38;;;7.70;47.03
60019;BME280;45870;42.528;26.740;2024-01-27T02:03:38;100089.47;;;7.31;47.95
60019;BME280;45870;42.528;26.740;2024-01-27T02:06:03;100093.50;;;7.01;48.98
60019;BME280;45870;42.528;26.740;2024-01-27T02:08:29;100084.94;;;7.45;48.13
60019;BME280;45870;42.528;26.740;2024-01-27T02:10:54;100068.84;;;7.65;47.05
60019;BME280;45870;42.528;26.740;2024-01-27T02:13:21;100059.34;;;8.01;46.12
60019;BME280;45870;42.528;26.740;2024-01-27T02:15:47;100065.75;;;9.60;42.67
60019;BME280;45870;42.528;26.740;2024-01-27T02:18:13;100069.22;;;9.92;41.33
60019;BME280;45870;42.528;26.740;2024-01-27T02:20:39;100075.69;;;9.84;39.64
60019;BME280;45870;42.528;26.740;2024-01-27T02:23:04;100076.19;;;9.75;39.75
60019;BME280;45870;42.528;26.740;2024-01-27T02:25:31;100085.41;;;9.92;39.07
60019;BME280;45870;42.528;26.740;2024-01-27T02:27:56;100082.78;;;10.03;39.90
60019;BME280;45870;42.528;26.740;2024-01-27T02:30:22;100081.34;;;9.14;42.07
60019;BME280;45870;42.528;26.740;2024-01-27T02:32:47;100080.50;;;9.51;41.27
60019;BME280;45870;42.528;26.740;2024-01-27T02:35:13;100084.25;;;9.12;41.69
60019;BME280;45870;42.528;26.740;2024-01-27T02:37:39;100083.72;;;7.61;45.30
60019;BME280;45870;42.528;26.740;2024-01-27T02:40:05;100097.13;;;7.34;47.47
60019;BME280;45870;42.528;26.740;2024-01-27T02:42:31;100096.75;;;6.90;48.47
60019;BME280;45870;42.528;26.740;2024-01-27T02:44:56;100089.25;;;7.39;47.55
60019;BME280;45870;42.528;26.740;2024-01-27T02:47:22;100088.44;;;8.50;45.14
60019;BME280;45870;42.528;26.740;2024-01-27T02:49:47;100091.50;;;8.67;44.05
60019;BME280;45870;42.528;26.740;2024-01-27T02:52:12;100088.03;;;8.98;43.14
60019;BME280;45870;42.528;26.740;2024-01-27T02:54:39;100089.94;;;8.91;42.50
60019;BME280;45870;42.528;26.740;2024-01-27T02:57:04;100073.78;;;8.14;45.06
60019;BME280;45870;42.528;26.740;2024-01-27T02:59:30;100077.75;;;7.91;46.14
60019;BME280;45870;42.528;26.740;2024-01-27T03:01:55;100080.94;;;8.72;44.46
60019;BME280;45870;42.528;26.740;2024-01-27T03:04:22;100075.47;;;7.95;45.29
60019;BME280;45870;42.528;26.740;2024-01-27T03:06:47;100080.16;;;7.21;47.53
60019;BME280;45870;42.528;26.740;2024-01-27T03:09:13;100080.00;;;7.48;46.97
60019;BME280;45870;42.528;26.740;2024-01-27T03:11:38;100084.88;;;7.25;47.44
60019;BME280;45870;42.528;26.740;2024-01-27T03:14:04;100080.09;;;7.08;48.19
60019;BME280;45870;42.528;26.740;2024-01-27T03:16:29;100075.63;;;8.26;45.72
60019;BME280;45870;42.528;26.740;2024-01-27T03:18:55;100076.03;;;7.31;48.05
60019;BME280;45870;42.528;26.740;2024-01-27T03:21:20;100066.63;;;6.94;48.52
60019;BME280;45870;42.528;26.740;2024-01-27T03:23:45;100055.63;;;7.63;46.83
60019;BME280;45870;42.528;26.740;2024-01-27T03:26:11;100063.41;;;7.19;47.63
60019;BME280;45870;42.528;26.740;2024-01-27T03:28:36;100059.53;;;7.34;47.29
60019;BME280;45870;42.528;26.740;2024-01-27T03:31:02;100055.41;;;7.51;47.00
60019;BME280;45870;42.528;26.740;2024-01-27T03:33:27;100058.09;;;7.65;46.61
60019;BME280;45870;42.528;26.740;2024-01-27T03:35:55;100070.28;;;6.74;49.07
60019;BME280;45870;42.528;26.740;2024-01-27T03:38:21;100071.84;;;6.21;50.81
60019;BME280;45870;42.528;26.740;2024-01-27T03:40:46;100069.69;;;6.78;49.11
60019;BME280;45870;42.528;26.740;2024-01-27T03:43:12;100067.16;;;7.37;48.38
60019;BME280;45870;42.528;26.740;2024-01-27T03:45:37;100068.63;;;7.86;46.06
60019;BME280;45870;42.528;26.740;2024-01-27T03:48:03;100073.31;;;8.49;45.06
60019;BME280;45870;42.528;26.740;2024-01-27T03:50:28;100072.56;;;8.93;43.05
60019;BME280;45870;42.528;26.740;2024-01-27T03:52:54;100076.25;;;9.37;42.39
60019;BME280;45870;42.528;26.740;2024-01-27T03:55:19;100066.97;;;7.85;45.87
60019;BME280;45870;42.528;26.740;2024-01-27T03:57:44;100063.06;;;7.94;46.72
60019;BME280;45870;42.528;26.740;2024-01-27T04:00:10;100073.38;;;8.03;45.60
60019;BME280;45870;42.528;26.740;2024-01-27T04:02:37;100074.94;;;9.08;43.72
60019;BME280;45870;42.528;26.740;2024-01-27T04:05:03;100068.06;;;10.06;40.82
60019;BME280;45870;42.528;26.740;2024-01-27T04:07:29;100067.22;;;8.80;44.10
60019;BME280;45870;42.528;26.740;2024-01-27T04:09:54;100058.91;;;8.88;43.12
60019;BME280;45870;42.528;26.740;2024-01-27T04:12:20;100060.75;;;8.88;43.70
60019;BME280;45870;42.528;26.740;2024-01-27T04:14:45;100059.69;;;9.33;43.02
60019;BME280;45870;42.528;26.740;2024-01-27T04:17:11;100056.41;;;8.29;45.24
60019;BME280;45870;42.528;26.740;2024-01-27T04:19:36;100058.72;;;7.86;46.02
60019;BME280;45870;42.528;26.740;2024-01-27T04:22:01;100059.97;;;9.50;43.23
60019;BME280;45870;42.528;26.740;2024-01-27T04:24:28;100074.63;;;9.29;43.48
60019;BME280;45870;42.528;26.740;2024-01-27T04:26:53;100073.16;;;8.95;44.21
60019;BME280;45870;42.528;26.740;2024-01-27T04:29:18;100070.53;;;9.83;41.61
60019;BME280;45870;42.528;26.740;2024-01-27T04:31:44;100061.06;;;10.41;40.08
60019;BME280;45870;42.528;26.740;2024-01-27T04:34:09;100049.31;;;10.11;40.92
60019;BME280;45870;42.528;26.740;2024-01-27T04:36:35;100038.69;;;10.41;40.55
60019;BME280;45870;42.528;26.740;2024-01-27T04:39:02;100028.00;;;10.82;40.14
60019;BME280;45870;42.528;26.740;2024-01-27T04:41:27;100026.38;;;10.02;40.92
60019;BME280;45870;42.528;26.740;2024-01-27T04:43:52;100027.19;;;9.60;41.66
60019;BME280;45870;42.528;26.740;2024-01-27T04:46:18;100045.72;;;9.12;42.79
60019;BME280;45870;42.528;26.740;2024-01-27T04:48:43;100039.59;;;8.98;43.98
60019;BME280;45870;42.528;26.740;2024-01-27T04:51:09;100039.16;;;9.08;43.35
60019;BME280;45870;42.528;26.740;2024-01-27T04:53:34;100044.16;;;9.35;41.87
60019;BME280;45870;42.528;26.740;2024-01-27T04:55:59;100049.41;;;9.24;42.98
60019;BME280;45870;42.528;26.740;2024-01-27T04:58:25;100038.66;;;9.48;42.54
60019;BME280;45870;42.528;26.740;2024-01-27T05:00:50;100036.03;;;10.16;41.58
60019;BME280;45870;42.528;26.740;2024-01-27T05:03:16;100034.34;;;9.41;42.49
60019;BME280;45870;42.528;26.740;2024-01-27T05:05:42;100020.25;;;9.70;41.63
60019;BME280;45870;42.528;26.740;2024-01-27T05:08:08;100015.56;;;9.59;41.87
60019;BME280;45870;42.528;26.740;2024-01-27T05:10:34;100016.47;;;9.96;41.64
60019;BME280;45870;42.528;26.740;2024-01-27T05:13:00;100022.88;;;10.44;40.93
60019;BME280;45870;42.528;26.740;2024-01-27T05:15:25;100027.88;;;9.98;41.12
60019;BME280;45870;42.528;26.740;2024-01-27T05:17:51;100032.06;;;9.13;43.91
60019;BME280;45870;42.528;26.740;2024-01-27T05:20:17;100035.34;;;9.15;42.46
60019;BME280;45870;42.528;26.740;2024-01-27T05:22:42;100027.16;;;9.35;43.05
60019;BME280;45870;42.528;26.740;2024-01-27T05:25:08;100022.47;;;9.98;41.65
60019;BME280;45870;42.528;26.740;2024-01-27T05:27:33;100026.84;;;11.49;38.22
60019;BME280;45870;42.528;26.740;2024-01-27T05:29:58;100020.03;;;10.87;39.16
60019;BME280;45870;42.528;26.740;2024-01-27T05:32:24;100026.66;;;10.73;39.09
60019;BME280;45870;42.528;26.740;2024-01-27T05:34:49;100026.84;;;9.74;41.14
60019;BME280;45870;42.528;26.740;2024-01-27T05:37:15;100018.56;;;8.82;43.57
60019;BME280;45870;42.528;26.740;2024-01-27T05:39:40;100024.00;;;7.65;45.97
60019;BME280;45870;42.528;26.740;2024-01-27T05:42:05;100034.06;;;6.50;49.20
60019;BME280;45870;42.528;26.740;2024-01-27T05:44:31;100026.81;;;7.11;48.01
60019;BME280;45870;42.528;26.740;2024-01-27T05:46:57;100032.53;;;9.35;41.88
60019;BME280;45870;42.528;26.740;2024-01-27T05:49:22;100029.34;;;7.19;46.89
60019;BME280;45870;42.528;26.740;2024-01-27T05:51:47;100028.75;;;7.70;46.59
60019;BME280;45870;42.528;26.740;2024-01-27T05:54:15;100030.75;;;8.33;44.70
60019;BME280;45870;42.528;26.740;2024-01-27T05:56:42;100023.00;;;10.31;40.24
60019;BME280;45870;42.528;26.740;2024-01-27T05:59:07;100017.19;;;11.12;38.26
60019;BME280;45870;42.528;26.740;2024-01-27T06:01:32;100019.13;;;11.76;37.31
60019;BME280;45870;42.528;26.740;2024-01-27T06:03:58;100019.50;;;11.80;37.21
60019;BME280;45870;42.528;26.740;2024-01-27T06:06:23;100031.50;;;11.84;36.80
60019;BME280;45870;42.528;26.740;2024-01-27T06:08:49;100041.09;;;11.27;37.43
60019;BME280;45870;42.528;26.740;2024-01-27T06:11:22;100047.19;;;11.64;37.15
60019;BME280;45870;42.528;26.740;2024-01-27T06:13:48;100045.03;;;11.95;36.60
60019;BME280;45870;42.528;26.740;2024-01-27T06:16:14;100037.75;;;11.96;36.10
60019;BME280;45870;42.528;26.740;2024-01-27T06:18:39;100050.00;;;11.69;36.27
60019;BME280;45870;42.528;26.740;2024-01-27T06:21:05;100041.41;;;12.13;36.08
60019;BME280;45870;42.528;26.740;2024-01-27T06:23:30;100040.97;;;11.22;37.67
60019;BME280;45870;42.528;26.740;2024-01-27T06:25:56;100032.19;;;12.14;35.91
60019;BME280;45870;42.528;26.740;2024-01-27T06:28:21;100027.81;;;10.66;38.96
60019;BME280;45870;42.528;26.740;2024-01-27T06:30:47;100036.88;;;11.31;38.49
60019;BME280;45870;42.528;26.740;2024-01-27T06:33:12;100034.97;;;10.90;38.63
60019;BME280;45870;42.528;26.740;2024-01-27T06:35:37;100037.34;;;11.28;37.52
60019;BME280;45870;42.528;26.740;2024-01-27T06:38:03;100037.13;;;11.71;37.34
60019;BME280;45870;42.528;26.740;2024-01-27T06:40:28;100033.72;;;10.56;38.94
60019;BME280;45870;42.528;26.740;2024-01-27T06:42:54;100041.88;;;10.07;40.82
60019;BME280;45870;42.528;26.740;2024-01-27T06:45:19;100037.25;;;9.95;41.64
60019;BME280;45870;42.528;26.740;2024-01-27T06:47:45;100043.88;;;9.12;42.81
60019;BME280;45870;42.528;26.740;2024-01-27T06:50:10;100042.84;;;9.69;42.05
60019;BME280;45870;42.528;26.740;2024-01-27T06:52:35;100046.78;;;9.42;42.63
60019;BME280;45870;42.528;26.740;2024-01-27T06:55:01;100042.72;;;8.37;45.20
60019;BME280;45870;42.528;26.740;2024-01-27T06:57:26;100041.56;;;7.87;46.44
60019;BME280;45870;42.528;26.740;2024-01-27T06:59:52;100045.69;;;7.96;46.65
60019;BME280;45870;42.528;26.740;2024-01-27T07:02:22;100030.72;;;8.46;45.93
60019;BME280;45870;42.528;26.740;2024-01-27T07:04:47;100043.63;;;8.82;45.45
60019;BME280;45870;42.528;26.740;2024-01-27T07:07:12;100035.75;;;9.19;43.30
60019;BME280;45870;42.528;26.740;2024-01-27T07:09:38;100037.94;;;10.09;42.43
60019;BME280;45870;42.528;26.740;2024-01-27T07:12:03;100030.19;;;11.33;39.77
60019;BME280;45870;42.528;26.740;2024-01-27T07:14:29;100016.44;;;11.88;39.00
60019;BME280;45870;42.528;26.740;2024-01-27T07:16:54;100017.63;;;12.67;37.42
60019;BME280;45870;42.528;26.740;2024-01-27T07:19:19;100014.22;;;13.11;36.13
60019;BME280;45870;42.528;26.740;2024-01-27T07:21:45;99997.00;;;13.06;35.55
60019;BME280;45870;42.528;26.740;2024-01-27T07:24:10;99971.78;;;12.48;36.49
60019;BME280;45870;42.528;26.740;2024-01-27T07:26:36;100014.81;;;12.73;36.72
60019;BME280;45870;42.528;26.740;2024-01-27T07:29:01;100021.34;;;13.29;35.51
60019;BME280;45870;42.528;26.740;2024-01-27T07:31:26;100014.00;;;10.37;40.80
60019;BME280;45870;42.528;26.740;2024-01-27T07:33:52;100009.00;;;9.98;42.80
60019;BME280;45870;42.528;26.740;2024-01-27T07:36:18;100007.25;;;11.24;40.81
60019;BME280;45870;42.528;26.740;2024-01-27T07:38:43;99997.50;;;10.64;42.15
60019;BME280;45870;42.528;26.740;2024-01-27T07:41:08;99997.31;;;11.48;40.17
60019;BME280;45870;42.528;26.740;2024-01-27T07:43:34;100006.59;;;12.57;37.01
60019;BME280;45870;42.528;26.740;2024-01-27T07:45:59;100008.19;;;11.83;37.57
60019;BME280;45870;42.528;26.740;2024-01-27T07:48:25;100015.34;;;12.47;37.52
60019;BME280;45870;42.528;26.740;2024-01-27T07:50:50;100003.72;;;12.00;38.83
60019;BME280;45870;42.528;26.740;2024-01-27T07:53:16;100009.09;;;12.58;37.95
60019;BME280;45870;42.528;26.740;2024-01-27T07:55:42;100013.69;;;13.26;36.33
60019;BME280;45870;42.528;26.740;2024-01-27T07:58:07;100015.09;;;13.28;35.83
60019;BME280;45870;42.528;26.740;2024-01-27T08:00:32;100017.34;;;12.40;37.06
60019;BME280;45870;42.528;26.740;2024-01-27T08:02:58;100018.09;;;12.12;38.83
60019;BME280;45870;42.528;26.740;2024-01-27T08:05:23;100010.88;;;10.88;40.03
60019;BME280;45870;42.528;26.740;2024-01-27T08:07:48;100012.72;;;9.97;42.75
60019;BME280;45870;42.528;26.740;2024-01-27T08:10:15;100013.78;;;9.71;43.44
60019;BME280;45870;42.528;26.740;2024-01-27T08:12:40;100019.19;;;8.13;47.64
60019;BME280;45870;42.528;26.740;2024-01-27T08:15:06;100026.56;;;8.50;47.66
60019;BME280;45870;42.528;26.740;2024-01-27T08:17:31;100025.50;;;8.51;48.36
60019;BME280;45870;42.528;26.740;2024-01-27T08:19:57;100025.22;;;8.73;49.13
60019;BME280;45870;42.528;26.740;2024-01-27T08:22:22;100020.81;;;8.40;48.82
60019;BME280;45870;42.528;26.740;2024-01-27T08:24:48;100005.38;;;9.05;48.45
60019;BME280;45870;42.528;26.740;2024-01-27T08:27:13;100014.44;;;8.28;50.29
60019;BME280;45870;42.528;26.740;2024-01-27T08:29:38;100006.75;;;8.32;48.90
60019;BME280;45870;42.528;26.740;2024-01-27T08:32:04;100016.06;;;8.23;50.29
60019;BME280;45870;42.528;26.740;2024-01-27T08:34:29;100021.66;;;8.21;47.31
60019;BME280;45870;42.528;26.740;2024-01-27T08:37:01;100020.97;;;8.45;47.38
60019;BME280;45870;42.528;26.740;2024-01-27T08:39:27;100022.06;;;8.25;47.72
60019;BME280;45870;42.528;26.740;2024-01-27T08:41:52;99991.53;;;8.64;46.23
60019;BME280;45870;42.528;26.740;2024-01-27T08:44:18;100017.50;;;8.38;47.32
60019;BME280;45870;42.528;26.740;2024-01-27T08:46:43;100019.13;;;9.28;46.30
60019;BME280;45870;42.528;26.740;2024-01-27T08:49:09;100017.03;;;8.55;46.78
60019;BME280;45870;42.528;26.740;2024-01-27T08:51:34;100010.81;;;8.98;47.20
60019;BME280;45870;42.528;26.740;2024-01-27T08:54:00;100013.34;;;8.42;48.94
60019;BME280;45870;42.528;26.740;2024-01-27T08:56:25;100019.00;;;8.79;47.73
60019;BME280;45870;42.528;26.740;2024-01-27T08:58:51;99989.63;;;8.00;49.80
60019;BME280;45870;42.528;26.740;2024-01-27T09:01:17;100021.22;;;8.24;49.51
60019;BME280;45870;42.528;26.740;2024-01-27T09:03:43;100020.31;;;9.01;48.11
60019;BME280;45870;42.528;26.740;2024-01-27T09:06:08;100031.16;;;8.88;48.30
60019;BME280;45870;42.528;26.740;2024-01-27T09:08:34;100032.63;;;8.26;48.85
60019;BME280;45870;42.528;26.740;2024-01-27T09:11:00;100027.41;;;8.44;48.69
60019;BME280;45870;42.528;26.740;2024-01-27T09:13:25;100032.41;;;9.23;47.78
60019;BME280;45870;42.528;26.740;2024-01-27T09:15:51;100043.31;;;8.52;49.91
60019;BME280;45870;42.528;26.740;2024-01-27T09:18:17;100042.78;;;7.78;52.49
60019;BME280;45870;42.528;26.740;2024-01-27T09:20:42;100035.34;;;7.41;53.46
60019;BME280;45870;42.528;26.740;2024-01-27T09:23:08;100039.06;;;7.86;52.48
60019;BME280;45870;42.528;26.740;2024-01-27T09:25:33;100040.72;;;7.67;52.61
60019;BME280;45870;42.528;26.740;2024-01-27T09:27:58;100045.03;;;8.21;52.16
60019;BME280;45870;42.528;26.740;2024-01-27T09:30:26;99828.22;;;5.85;55.12
60019;BME280;45870;42.528;26.740;2024-01-27T09:32:51;100042.59;;;7.53;53.52
60019;BME280;45870;42.528;26.740;2024-01-27T09:35:17;100038.03;;;7.61;53.78
60019;BME280;45870;42.528;26.740;2024-01-27T09:37:43;100025.38;;;8.14;52.00
60019;BME280;45870;42.528;26.740;2024-01-27T09:40:09;100060.56;;;7.86;53.89
60019;BME280;45870;42.528;26.740;2024-01-27T09:42:35;100060.53;;;8.32;53.12
60019;BME280;45870;42.528;26.740;2024-01-27T09:45:03;100056.34;;;8.49;51.77
60019;BME280;45870;42.528;26.740;2024-01-27T09:47:29;100059.69;;;8.25;52.88
60019;BME280;45870;42.528;26.740;2024-01-27T09:49:55;100044.44;;;7.86;53.91
60019;BME280;45870;42.528;26.740;2024-01-27T09:52:20;100057.69;;;7.68;54.64
60019;BME280;45870;42.528;26.740;2024-01-27T09:54:46;100050.19;;;8.35;52.99
60019;BME280;45870;42.528;26.740;2024-01-27T09:57:12;100041.09;;;8.36;51.97
60019;BME280;45870;42.528;26.740;2024-01-27T09:59:39;100052.28;;;8.07;53.24
60019;BME280;45870;42.528;26.740;2024-01-27T10:02:07;100048.97;;;7.26;54.23
60019;BME280;45870;42.528;26.740;2024-01-27T10:04:34;100054.53;;;8.17;53.45
60019;BME280;45870;42.528;26.740;2024-01-27T10:06:59;100054.13;;;8.33;52.29
60019;BME280;45870;42.528;26.740;2024-01-27T10:09:25;100052.38;;;9.09;49.54
60019;BME280;45870;42.528;26.740;2024-01-27T10:11:50;100051.97;;;9.06;50.36
60019;BME280;45870;42.528;26.740;2024-01-27T10:14:16;100055.50;;;8.62;52.18
60019;BME280;45870;42.528;26.740;2024-01-27T10:16:42;100053.69;;;9.00;51.92
60019;BME280;45870;42.528;26.740;2024-01-27T10:19:08;100049.53;;;8.97;51.01
60019;BME280;45870;42.528;26.740;2024-01-27T10:21:37;100053.53;;;7.78;55.69
60019;BME280;45870;42.528;26.740;2024-01-27T10:24:02;100053.94;;;8.15;54.58
60019;BME280;45870;42.528;26.740;2024-01-27T10:26:31;100053.97;;;7.56;56.74
60019;BME280;45870;42.528;26.740;2024-01-27T10:28:57;100050.03;;;7.51;56.56
60019;BME280;45870;42.528;26.740;2024-01-27T10:31:35;100050.75;;;6.93;59.06
60019;BME280;45870;42.528;26.740;2024-01-27T10:34:03;100051.50;;;6.74;59.11
60019;BME280;45870;42.528;26.740;2024-01-27T10:36:41;100053.91;;;7.10;57.43
60019;BME280;45870;42.528;26.740;2024-01-27T10:39:16;100054.78;;;7.89;55.22
60019;BME280;45870;42.528;26.740;2024-01-27T10:41:43;100050.44;;;7.62;56.13
60019;BME280;45870;42.528;26.740;2024-01-27T10:44:10;100047.34;;;7.51;56.17
60019;BME280;45870;42.528;26.740;2024-01-27T10:46:36;100042.59;;;7.47;55.40
60019;BME280;45870;42.528;26.740;2024-01-27T10:49:02;100050.38;;;8.34;53.83
60019;BME280;45870;42.528;26.740;2024-01-27T10:51:32;100038.22;;;8.82;53.13
60019;BME280;45870;42.528;26.740;2024-01-27T10:54:01;100040.94;;;8.05;55.38
60019;BME280;45870;42.528;26.740;2024-01-27T10:56:27;100027.69;;;9.43;52.66
60019;BME280;45870;42.528;26.740;2024-01-27T10:58:52;100039.31;;;8.75;52.70
60019;BME280;45870;42.528;26.740;2024-01-27T11:01:18;100029.97;;;7.87;56.08
60019;BME280;45870;42.528;26.740;2024-01-27T11:03:44;100023.94;;;6.45;59.44
60019;BME280;45870;42.528;26.740;2024-01-27T11:06:12;100022.94;;;7.07;58.50
60019;BME280;45870;42.528;26.740;2024-01-27T11:08:38;100018.41;;;7.34;57.79
60019;BME280;45870;42.528;26.740;2024-01-27T11:11:03;100012.59;;;8.09;55.26
60019;BME280;45870;42.528;26.740;2024-01-27T11:13:30;100012.31;;;8.24;55.96
60019;BME280;45870;42.528;26.740;2024-01-27T11:15:57;100012.50;;;9.56;52.70
60019;BME280;45870;42.528;26.740;2024-01-27T11:18:24;100010.94;;;10.16;49.69
60019;BME280;45870;42.528;26.740;2024-01-27T11:20:52;100012.13;;;9.21;52.71
60019;BME280;45870;42.528;26.740;2024-01-27T11:23:18;100005.38;;;9.86;51.20
60019;BME280;45870;42.528;26.740;2024-01-27T11:25:43;100014.47;;;9.67;52.63
60019;BME280;45870;42.528;26.740;2024-01-27T11:28:12;100004.50;;;9.18;53.17
60019;BME280;45870;42.528;26.740;2024-01-27T11:30:47;100000.44;;;11.22;48.13
60019;BME280;45870;42.528;26.740;2024-01-27T11:33:13;100004.84;;;11.58;46.70
60019;BME280;45870;42.528;26.740;2024-01-27T11:35:38;100007.41;;;11.41;46.75
60019;BME280;45870;42.528;26.740;2024-01-27T11:38:03;100011.66;;;11.48;46.62
60019;BME280;45870;42.528;26.740;2024-01-27T11:40:29;100009.16;;;10.94;48.76
60019;BME280;45870;42.528;26.740;2024-01-27T11:42:55;100006.44;;;10.46;50.05
60019;BME280;45870;42.528;26.740;2024-01-27T11:45:21;100011.03;;;10.27;49.32
60019;BME280;45870;42.528;26.740;2024-01-27T11:47:47;100010.78;;;9.61;51.20
60019;BME280;45870;42.528;26.740;2024-01-27T11:50:12;100011.28;;;10.74;51.24
60019;BME280;45870;42.528;26.740;2024-01-27T11:52:38;100015.13;;;10.48;49.99
60019;BME280;45870;42.528;26.740;2024-01-27T11:55:03;100010.97;;;10.09;52.17
60019;BME280;45870;42.528;26.740;2024-01-27T11:57:29;100003.06;;;10.50;50.02
60019;BME280;45870;42.528;26.740;2024-01-27T11:59:55;100003.59;;;10.41;50.43
60019;BME280;45870;42.528;26.740;2024-01-27T12:02:20;100010.50;;;9.13;52.66
60019;BME280;45870;42.528;26.740;2024-01-27T12:04:46;100013.09;;;8.95;54.43
60019;BME280;45870;42.528;26.740;2024-01-27T12:07:12;99992.75;;;11.48;48.24
60019;BME280;45870;42.528;26.740;2024-01-27T12:09:38;100000.81;;;9.62;51.84
60019;BME280;45870;42.528;26.740;2024-01-27T12:12:04;100006.13;;;9.19;53.76
60019;BME280;45870;42.528;26.740;2024-01-27T12:14:45;100012.28;;;10.43;52.42
60019;BME280;45870;42.528;26.740;2024-01-27T12:17:11;100005.75;;;11.28;50.26
60019;BME280;45870;42.528;26.740;2024-01-27T12:19:37;100007.50;;;10.02;51.33
60019;BME280;45870;42.528;26.740;2024-01-27T12:22:03;99999.53;;;10.68;50.24
60019;BME280;45870;42.528;26.740;2024-01-27T12:24:28;99999.81;;;11.49;48.53
60019;BME280;45870;42.528;26.740;2024-01-27T12:26:55;100008.09;;;12.76;46.52
60019;BME280;45870;42.528;26.740;2024-01-27T12:29:22;100006.41;;;13.60;44.01
60019;BME280;45870;42.528;26.740;2024-01-27T12:31:47;100007.09;;;13.22;45.38
60019;BME280;45870;42.528;26.740;2024-01-27T12:34:13;100011.03;;;12.23;47.62
60019;BME280;45870;42.528;26.740;2024-01-27T12:36:42;100008.44;;;11.28;49.14
60019;BME280;45870;42.528;26.740;2024-01-27T12:39:08;100006.13;;;9.93;52.72
60019;BME280;45870;42.528;26.740;2024-01-27T12:41:34;100014.59;;;11.06;50.96